createdAt,value
2022-11-19T00:01:26.601Z,11.95
2022-11-19T00:03:53.645Z,9.27
2022-11-19T00:06:25.783Z,12.55
2022-11-19T00:11:46.052Z,10.43
2022-11-19T00:14:15.054Z,8.93
2022-11-19T00:16:43.662Z,13.02
2022-11-19T00:19:11.077Z,10.77
2022-11-19T00:21:37.760Z,8.88
2022-11-19T00:24:04.720Z,11.07
2022-11-19T00:26:31.293Z,11.52
2022-11-19T00:28:57.847Z,12.30
2022-11-19T00:31:24.418Z,11.55
2022-11-19T00:33:51.278Z,10.00
2022-11-19T00:36:18.199Z,8.25
2022-11-19T00:38:44.920Z,11.75
2022-11-19T00:41:11.928Z,11.45
2022-11-19T00:43:47.864Z,11.80
2022-11-19T00:46:21.847Z,11.15
2022-11-19T00:48:50.224Z,9.32
2022-11-19T00:51:18.220Z,11.77
2022-11-19T00:53:45.274Z,10.93
2022-11-19T00:56:14.048Z,10.68
2022-11-19T00:58:41.125Z,12.15
2022-11-19T01:01:09.297Z,9.05
2022-11-19T01:03:36.888Z,10.93
2022-11-19T01:06:03.802Z,11.40
2022-11-19T01:08:30.482Z,11.27
2022-11-19T01:11:14.265Z,9.73
2022-11-19T01:13:41.472Z,13.45
2022-11-19T01:16:18.902Z,12.02
2022-11-19T01:18:47.420Z,8.48
2022-11-19T01:21:15.164Z,9.68
2022-11-19T01:23:43.097Z,11.10
2022-11-19T01:26:10.752Z,10.93
2022-11-19T01:28:37.384Z,10.13
2022-11-19T01:31:14.904Z,10.95
2022-11-19T01:33:41.971Z,10.88
2022-11-19T01:36:12.499Z,11.02
2022-11-19T01:38:39.213Z,11.45
2022-11-19T01:41:06.140Z,12.65
2022-11-19T01:43:51.366Z,13.75
2022-11-19T01:46:23.293Z,12.40
2022-11-19T01:48:54.190Z,13.38
2022-11-19T01:51:38.123Z,12.68
2022-11-19T01:54:12.497Z,12.55
2022-11-19T01:56:39.525Z,11.95
2022-11-19T01:59:11.834Z,12.50
2022-11-19T02:01:38.492Z,13.43
2022-11-19T02:04:07.722Z,16.23
2022-11-19T02:06:35.181Z,12.75
2022-11-19T02:09:01.938Z,13.63
2022-11-19T02:11:54.686Z,12.13
2022-11-19T02:14:53.460Z,10.52
2022-11-19T02:17:43.560Z,12.27
2022-11-19T02:20:37.703Z,13.48
2022-11-19T02:23:28.667Z,15.55
2022-11-19T02:26:14.870Z,12.57
2022-11-19T02:29:07.829Z,16.27
2022-11-19T02:31:52.338Z,12.20
2022-11-19T02:34:46.672Z,12.40
2022-11-19T02:37:36.880Z,12.68
2022-11-19T02:40:24.533Z,12.73
2022-11-19T02:42:54.243Z,12.15
2022-11-19T02:45:30.209Z,13.23
2022-11-19T02:48:02.332Z,10.65
2022-11-19T02:52:59.287Z,10.50
2022-11-19T02:55:27.357Z,13.02
2022-11-19T02:58:02.808Z,12.63
2022-11-19T03:00:55.957Z,11.43
2022-11-19T03:03:58.103Z,11.40
2022-11-19T03:06:28.495Z,14.10
2022-11-19T03:08:55.084Z,12.88
2022-11-19T03:11:27.853Z,10.48
2022-11-19T03:14:36.920Z,12.70
2022-11-19T03:17:17.566Z,14.95
2022-11-19T03:19:56.821Z,14.75
2022-11-19T03:22:39.429Z,11.40
2022-11-19T03:25:16.269Z,8.77
2022-11-19T03:27:46.972Z,12.90
2022-11-19T03:30:15.944Z,13.27
2022-11-19T03:32:56.751Z,14.52
2022-11-19T03:35:29.011Z,11.93
2022-11-19T03:37:59.855Z,12.68
2022-11-19T03:40:30.147Z,11.50
2022-11-19T03:42:58.835Z,12.45
2022-11-19T03:45:32.455Z,10.80
2022-11-19T03:48:01.629Z,13.25
2022-11-19T03:50:30.416Z,9.75
2022-11-19T03:53:03.922Z,9.05
2022-11-19T03:55:48.683Z,9.77
2022-11-19T03:58:15.331Z,9.13
2022-11-19T04:00:41.916Z,10.70
2022-11-19T04:03:08.480Z,10.77
2022-11-19T04:05:35.120Z,11.77
2022-11-19T04:08:01.776Z,9.80
2022-11-19T04:10:28.333Z,11.35
2022-11-19T04:12:55.073Z,10.88
2022-11-19T04:15:21.665Z,10.50
2022-11-19T04:17:48.257Z,13.10
2022-11-19T04:20:14.848Z,9.63
2022-11-19T04:22:42.041Z,10.75
2022-11-19T04:25:09.228Z,12.35
2022-11-19T04:27:35.798Z,11.45
2022-11-19T04:30:02.605Z,10.07
2022-11-19T04:32:29.783Z,11.52
2022-11-19T04:34:56.400Z,9.93
2022-11-19T04:37:22.961Z,10.52
2022-11-19T04:39:49.533Z,10.50
2022-11-19T04:42:16.112Z,14.10
2022-11-19T04:44:42.684Z,9.85
2022-11-19T04:47:09.269Z,10.48
2022-11-19T04:49:35.861Z,10.23
2022-11-19T04:52:02.533Z,11.88
2022-11-19T04:54:29.151Z,8.82
2022-11-19T04:56:55.764Z,10.18
2022-11-19T04:59:22.558Z,10.55
2022-11-19T05:01:49.381Z,9.30
2022-11-19T05:04:16.091Z,11.68
2022-11-19T05:06:42.721Z,10.68
2022-11-19T05:09:09.325Z,11.10
2022-11-19T05:11:35.967Z,13.25
2022-11-19T05:14:02.555Z,9.38
2022-11-19T05:16:29.134Z,9.82
2022-11-19T05:18:55.983Z,8.13
2022-11-19T05:21:22.563Z,9.02
2022-11-19T05:23:49.156Z,11.95
2022-11-19T05:26:15.733Z,12.18
2022-11-19T05:28:42.334Z,11.52
2022-11-19T05:31:09.163Z,11.00
2022-11-19T05:33:35.737Z,10.95
2022-11-19T05:36:02.731Z,10.70
2022-11-19T05:38:29.621Z,14.38
2022-11-19T05:40:56.196Z,11.30
2022-11-19T05:43:22.811Z,12.40
2022-11-19T05:45:49.456Z,12.18
2022-11-19T05:48:16.052Z,11.82
2022-11-19T05:50:42.912Z,11.02
2022-11-19T05:53:10.432Z,12.80
2022-11-19T05:55:37.081Z,13.80
2022-11-19T05:58:03.859Z,11.13
2022-11-19T06:00:30.425Z,12.73
2022-11-19T06:02:57.092Z,11.82
2022-11-19T06:05:23.837Z,10.25
2022-11-19T06:07:50.496Z,12.27
2022-11-19T06:10:17.396Z,11.80
2022-11-19T06:12:45.957Z,12.15
2022-11-19T06:15:13.749Z,10.20
2022-11-19T06:17:40.569Z,11.25
2022-11-19T06:20:10.712Z,14.65
2022-11-19T06:22:37.802Z,11.27
2022-11-19T06:25:05.722Z,11.98
2022-11-19T06:27:32.297Z,10.60
2022-11-19T06:29:58.940Z,11.02
2022-11-19T06:32:25.604Z,13.10
2022-11-19T06:34:52.251Z,14.27
2022-11-19T06:37:18.851Z,11.48
2022-11-19T06:39:45.412Z,9.25
2022-11-19T06:42:30.546Z,10.73
2022-11-19T06:44:57.139Z,9.43
2022-11-19T06:47:23.714Z,10.93
2022-11-19T06:49:50.275Z,13.00
2022-11-19T06:52:16.885Z,12.25
2022-11-19T06:54:43.707Z,11.88
2022-11-19T06:57:10.491Z,13.65
2022-11-19T06:59:38.822Z,10.15
2022-11-19T07:02:05.887Z,11.07
2022-11-19T07:04:32.621Z,11.43
2022-11-19T07:06:59.266Z,14.45
2022-11-19T07:09:25.873Z,13.70
2022-11-19T07:11:52.560Z,13.73
2022-11-19T07:14:19.187Z,13.10
2022-11-19T07:16:45.756Z,15.77
2022-11-19T07:19:12.486Z,17.02
2022-11-19T07:21:39.220Z,14.57
2022-11-19T07:24:08.295Z,16.55
2022-11-19T07:26:36.052Z,16.05
2022-11-19T07:29:05.745Z,15.65
2022-11-19T07:31:33.266Z,15.10
2022-11-19T07:34:00.633Z,15.68
2022-11-19T07:36:27.268Z,12.93
2022-11-19T07:38:53.828Z,13.07
2022-11-19T07:41:38.845Z,15.27
2022-11-19T07:44:05.619Z,15.15
2022-11-19T07:46:32.422Z,14.05
2022-11-19T07:48:59.554Z,12.02
2022-11-19T07:51:26.752Z,15.32
2022-11-19T07:53:54.760Z,14.80
2022-11-19T07:56:21.588Z,14.45
2022-11-19T07:58:48.204Z,15.60
2022-11-19T08:01:20.096Z,13.23
2022-11-19T08:06:22.276Z,13.77
2022-11-19T08:08:49.080Z,16.50
2022-11-19T08:11:16.583Z,16.65
2022-11-19T08:13:43.508Z,12.90
2022-11-19T08:16:37.696Z,11.27
2022-11-19T08:19:12.264Z,15.10
2022-11-19T08:21:44.782Z,13.38
2022-11-19T08:24:13.032Z,14.02
2022-11-19T08:26:40.806Z,13.15
2022-11-19T08:29:13.009Z,19.65
2022-11-19T08:31:43.844Z,15.27
2022-11-19T08:34:10.533Z,13.85
2022-11-19T08:36:37.119Z,17.05
2022-11-19T08:39:04.074Z,12.23
2022-11-19T08:41:49.241Z,12.13
2022-11-19T08:44:15.881Z,14.27
2022-11-19T08:46:42.469Z,12.70
2022-11-19T08:49:09.453Z,13.35
2022-11-19T08:51:36.081Z,11.27
2022-11-19T08:54:02.704Z,11.55
2022-11-19T08:56:29.331Z,12.30
2022-11-19T08:59:02.295Z,11.57
2022-11-19T09:01:29.519Z,12.70
2022-11-19T09:03:56.145Z,13.35
2022-11-19T09:06:22.748Z,13.10
2022-11-19T09:08:49.371Z,15.73
2022-11-19T09:11:19.005Z,14.02
2022-11-19T09:13:45.648Z,12.88
2022-11-19T09:16:12.700Z,11.65
2022-11-19T09:18:41.879Z,11.15
2022-11-19T09:21:10.369Z,9.77
2022-11-19T09:23:37.080Z,11.75
2022-11-19T09:26:07.201Z,13.98
2022-11-19T09:28:34.137Z,12.68
2022-11-19T09:31:03.280Z,13.75
2022-11-19T09:33:31.337Z,11.13
2022-11-19T09:35:57.921Z,13.38
2022-11-19T09:38:24.832Z,12.63
2022-11-19T09:40:53.926Z,14.57
2022-11-19T09:43:39.136Z,12.52
2022-11-19T09:46:31.725Z,12.73
2022-11-19T09:49:06.008Z,11.70
2022-11-19T09:51:35.016Z,12.10
2022-11-19T09:54:15.578Z,18.00
2022-11-19T09:56:45.023Z,13.15
2022-11-19T09:59:47.777Z,12.85
2022-11-19T10:02:19.551Z,11.43
2022-11-19T10:04:47.782Z,10.23
2022-11-19T10:07:40.587Z,14.13
2022-11-19T10:10:27.639Z,12.23
2022-11-19T10:12:57.544Z,12.18
2022-11-19T10:15:37.955Z,10.90
2022-11-19T10:21:55.369Z,12.38
2022-11-19T10:24:28.535Z,11.13
2022-11-19T10:27:10.298Z,10.02
2022-11-19T10:29:38.967Z,12.38
2022-11-19T10:32:27.359Z,12.63
2022-11-19T10:34:58.585Z,12.27
2022-11-19T10:37:29.720Z,12.47
2022-11-19T10:40:03.035Z,11.00
2022-11-19T10:42:35.340Z,10.40
2022-11-19T10:45:09.351Z,12.77
2022-11-19T10:47:48.019Z,12.60
2022-11-19T10:50:23.667Z,10.43
2022-11-19T10:52:54.153Z,11.32
2022-11-19T10:55:40.906Z,11.55
2022-11-19T10:58:10.567Z,12.93
2022-11-19T11:00:39.741Z,11.20
2022-11-19T11:03:15.139Z,15.10
2022-11-19T11:06:05.323Z,11.15
2022-11-19T11:08:32.768Z,10.80
2022-11-19T11:11:00.776Z,12.18
2022-11-19T11:13:56.089Z,11.57
2022-11-19T11:16:43.597Z,11.27
2022-11-19T11:19:17.772Z,10.60
2022-11-19T11:21:45.588Z,11.20
2022-11-19T11:24:13.747Z,11.13
2022-11-19T11:26:40.808Z,8.95
2022-11-19T11:29:27.726Z,9.93
2022-11-19T11:31:54.585Z,12.75
2022-11-19T11:34:37.034Z,10.25
2022-11-19T11:39:37.258Z,10.07
2022-11-19T11:42:06.687Z,12.18
2022-11-19T11:44:36.963Z,8.95
2022-11-19T11:47:10.270Z,10.32
2022-11-19T11:49:42.374Z,9.77
2022-11-19T11:52:09.308Z,9.27
2022-11-19T11:54:36.768Z,11.05
2022-11-19T11:57:21.850Z,11.40
2022-11-19T11:59:48.783Z,10.38
2022-11-19T12:02:35.304Z,8.70
2022-11-19T12:05:10.708Z,8.35
2022-11-19T12:08:03.761Z,10.75
2022-11-19T12:10:38.735Z,9.90
2022-11-19T12:13:26.616Z,8.57
2022-11-19T12:15:59.008Z,8.13
2022-11-19T12:18:59.538Z,8.15
2022-11-19T12:21:31.985Z,7.50
2022-11-19T12:24:09.109Z,7.93
2022-11-19T12:26:48.805Z,9.57
2022-11-19T12:29:48.611Z,9.65
2022-11-19T12:32:31.504Z,9.82
2022-11-19T12:35:22.776Z,7.55
2022-11-19T12:38:15.168Z,9.65
2022-11-19T12:40:56.103Z,9.15
2022-11-19T12:43:40.118Z,9.07
2022-11-19T12:46:34.022Z,9.40
2022-11-19T12:49:28.700Z,9.35
2022-11-19T12:52:18.931Z,8.68
2022-11-19T12:55:06.959Z,10.48
2022-11-19T12:58:10.315Z,10.15
2022-11-19T13:00:42.482Z,7.55
2022-11-19T13:03:09.022Z,6.60
2022-11-19T13:05:47.407Z,5.97
2022-11-19T13:08:36.939Z,6.15
2022-11-19T13:11:15.841Z,8.48
2022-11-19T13:13:47.830Z,9.30
2022-11-19T13:16:17.998Z,8.57
2022-11-19T13:18:48.014Z,8.35
2022-11-19T13:21:26.488Z,11.02
2022-11-19T13:23:53.997Z,8.98
2022-11-19T13:26:25.456Z,8.00
2022-11-19T13:28:58.252Z,9.70
2022-11-19T13:31:44.889Z,7.95
2022-11-19T13:34:23.501Z,8.02
2022-11-19T13:36:55.812Z,7.85
2022-11-19T13:39:39.661Z,6.68
2022-11-19T13:42:27.913Z,7.75
2022-11-19T13:44:54.847Z,7.93
2022-11-19T13:47:21.396Z,8.25
2022-11-19T13:50:02.829Z,8.60
2022-11-19T13:52:38.167Z,6.82
2022-11-19T13:55:21.002Z,9.07
2022-11-19T13:57:48.916Z,7.60
2022-11-19T14:00:27.519Z,8.18
2022-11-19T14:03:27.329Z,8.82
2022-11-19T14:06:38.120Z,24.15
2022-11-19T14:09:15.204Z,12.50
2022-11-19T14:11:56.847Z,9.38
2022-11-19T14:15:11.444Z,8.65
2022-11-19T14:18:34.355Z,8.75
2022-11-19T14:21:48.389Z,7.38
2022-11-19T14:24:45.665Z,9.20
2022-11-19T14:27:32.351Z,6.95
2022-11-19T14:30:05.177Z,8.57
2022-11-19T14:32:39.254Z,8.57
2022-11-19T14:35:18.897Z,8.98
2022-11-19T14:37:47.867Z,8.88
2022-11-19T14:40:21.042Z,9.27
2022-11-19T14:43:18.379Z,8.55
2022-11-19T14:46:03.265Z,7.45
2022-11-19T14:48:51.854Z,9.32
2022-11-19T14:51:37.372Z,16.55
2022-11-19T14:54:16.180Z,17.80
2022-11-19T14:56:46.744Z,15.15
2022-11-19T14:59:16.375Z,14.63
2022-11-19T15:02:14.465Z,10.75
2022-11-19T15:04:48.525Z,10.63
2022-11-19T15:07:25.143Z,10.38
2022-11-19T15:10:10.159Z,10.65
2022-11-19T15:12:46.885Z,9.82
2022-11-19T15:15:19.470Z,6.78
2022-11-19T15:18:03.408Z,8.25
2022-11-19T15:20:51.660Z,9.45
2022-11-19T15:23:35.584Z,9.35
2022-11-19T15:26:26.306Z,9.30
2022-11-19T15:29:07.950Z,10.43
2022-11-19T15:32:13.824Z,6.18
2022-11-19T15:35:14.176Z,7.97
2022-11-19T15:37:47.135Z,9.02
2022-11-19T15:40:22.440Z,9.88
2022-11-19T15:42:56.979Z,9.05
2022-11-19T15:45:25.693Z,12.85
2022-11-19T15:47:57.418Z,16.33
2022-11-19T15:50:25.377Z,15.43
2022-11-19T15:53:13.196Z,13.32
2022-11-19T15:55:47.753Z,14.63
2022-11-19T16:07:09.930Z,12.85
2022-11-19T16:09:37.816Z,11.77
2022-11-19T16:12:23.243Z,10.77
2022-11-19T16:15:10.045Z,9.52
2022-11-19T16:17:44.612Z,10.77
2022-11-19T16:20:11.218Z,12.57
2022-11-19T16:22:45.721Z,12.57
2022-11-19T16:25:18.341Z,15.30
2022-11-19T16:27:46.072Z,13.57
2022-11-19T16:30:21.197Z,16.00
2022-11-19T16:32:49.164Z,16.88
2022-11-19T16:35:27.640Z,18.02
2022-11-19T16:37:55.209Z,14.98
2022-11-19T16:40:22.532Z,15.45
2022-11-19T16:42:55.669Z,16.05
2022-11-19T16:45:31.256Z,14.43
2022-11-19T16:48:00.639Z,14.35
2022-11-19T16:50:33.094Z,13.60
2022-11-19T16:53:01.663Z,15.75
2022-11-19T16:55:31.663Z,19.60
2022-11-19T16:58:20.423Z,21.02
2022-11-19T17:00:54.277Z,22.77
2022-11-19T17:03:20.845Z,24.50
2022-11-19T17:05:50.496Z,18.85
2022-11-19T17:08:32.602Z,17.73
2022-11-19T17:11:37.859Z,16.38
2022-11-19T17:14:20.603Z,12.70
2022-11-19T17:16:49.191Z,12.93
2022-11-19T17:19:39.536Z,10.43
2022-11-19T17:22:23.028Z,12.27
2022-11-19T17:24:50.371Z,8.65
2022-11-19T17:27:35.280Z,6.30
2022-11-19T17:30:09.581Z,7.65
2022-11-19T17:32:48.649Z,8.15
2022-11-19T17:35:43.765Z,7.28
2022-11-19T17:38:26.983Z,11.48
2022-11-19T17:41:00.417Z,10.80
2022-11-19T17:43:53.881Z,10.52
2022-11-19T17:46:21.900Z,11.85
2022-11-19T17:48:49.536Z,11.52
2022-11-19T17:51:18.901Z,9.68
2022-11-19T17:53:46.198Z,9.90
2022-11-19T17:56:26.328Z,11.68
2022-11-19T17:58:53.010Z,9.45
2022-11-19T18:01:19.798Z,9.68
2022-11-19T18:03:46.544Z,9.18
2022-11-19T18:06:17.502Z,10.35
2022-11-19T18:08:44.988Z,9.43
2022-11-19T18:11:13.508Z,11.75
2022-11-19T18:13:42.186Z,20.45
2022-11-19T18:16:17.072Z,16.02
2022-11-19T18:18:43.896Z,23.08
2022-11-19T18:21:12.777Z,21.75
2022-11-19T18:23:40.800Z,19.88
2022-11-19T18:26:25.488Z,25.48
2022-11-19T18:28:52.189Z,24.48
2022-11-19T18:31:21.288Z,28.58
2022-11-19T18:33:48.537Z,26.00
2022-11-19T18:36:16.679Z,27.02
2022-11-19T18:38:43.751Z,24.02
2022-11-19T18:41:12.282Z,18.52
2022-11-19T18:43:57.872Z,14.52
2022-11-19T18:46:25.008Z,15.23
2022-11-19T18:48:53.460Z,17.13
2022-11-19T18:51:20.813Z,16.05
2022-11-19T18:53:47.507Z,14.13
2022-11-19T18:56:18.951Z,16.88
2022-11-19T18:58:45.911Z,12.45
2022-11-19T19:01:13.147Z,15.98
2022-11-19T19:03:42.912Z,17.67
2022-11-19T19:06:10.028Z,18.92
2022-11-19T19:08:37.135Z,20.58
2022-11-19T19:11:27.021Z,20.65
2022-11-19T19:13:54.134Z,19.50
2022-11-19T19:16:20.858Z,21.45
2022-11-19T19:18:47.807Z,20.02
2022-11-19T19:21:17.245Z,18.17
2022-11-19T19:23:44.077Z,21.95
2022-11-19T19:26:12.993Z,20.63
2022-11-19T19:28:43.908Z,16.98
2022-11-19T19:31:13.689Z,16.00
2022-11-19T19:33:46.093Z,18.23
2022-11-19T19:36:13.376Z,17.33
2022-11-19T19:38:40.763Z,17.13
2022-11-19T19:41:11.467Z,21.75
2022-11-19T19:43:38.073Z,29.50
2022-11-19T19:46:07.039Z,33.28
2022-11-19T19:48:34.896Z,32.28
2022-11-19T19:51:01.511Z,30.45
2022-11-19T19:53:28.091Z,29.45
2022-11-19T19:56:18.736Z,43.80
2022-11-19T19:58:46.453Z,67.32
2022-11-19T20:01:19.055Z,48.15
2022-11-19T20:03:49.302Z,50.60
2022-11-19T20:06:22.117Z,32.55
2022-11-19T20:08:48.737Z,26.65
2022-11-19T20:11:20.575Z,26.80
2022-11-19T20:13:47.594Z,25.15
2022-11-19T20:16:22.696Z,20.75
2022-11-19T20:18:50.696Z,19.10
2022-11-19T20:21:20.202Z,18.17
2022-11-19T20:23:47.277Z,17.83
2022-11-19T20:26:20.066Z,15.63
2022-11-19T20:28:47.782Z,17.23
2022-11-19T20:31:19.665Z,16.90
2022-11-19T20:33:50.540Z,16.40
2022-11-19T20:36:17.214Z,17.58
2022-11-19T20:38:46.283Z,19.70
2022-11-19T20:41:32.964Z,18.95
2022-11-19T20:44:19.359Z,16.95
2022-11-19T20:46:55.778Z,18.60
2022-11-19T20:49:24.873Z,17.15
2022-11-19T20:51:52.820Z,19.15
2022-11-19T20:54:21.264Z,17.08
2022-11-19T20:56:49.388Z,17.08
2022-11-19T20:59:16.395Z,14.75
2022-11-19T21:01:43.076Z,16.17
2022-11-19T21:04:11.439Z,83.75
2022-11-19T21:06:38.544Z,228.68
2022-11-19T21:09:05.604Z,77.07
2022-11-19T21:11:33.099Z,41.90
2022-11-19T21:14:00.251Z,39.15
2022-11-19T21:16:28.797Z,25.52
2022-11-19T21:18:55.988Z,19.15
2022-11-19T21:21:26.412Z,15.75
2022-11-19T21:23:53.993Z,16.13
2022-11-19T21:26:25.529Z,15.10
2022-11-19T21:28:55.000Z,16.55
2022-11-19T21:31:38.325Z,19.23
2022-11-19T21:34:06.555Z,14.85
2022-11-19T21:36:33.279Z,16.25
2022-11-19T21:38:59.990Z,13.55
2022-11-19T21:41:26.580Z,15.60
2022-11-19T21:43:53.227Z,19.45
2022-11-19T21:46:19.831Z,18.92
2022-11-19T21:48:46.412Z,20.27
2022-11-19T21:51:13.145Z,18.23
2022-11-19T21:53:39.782Z,23.80
2022-11-19T21:56:06.789Z,21.70
2022-11-19T21:58:33.484Z,22.55
2022-11-19T22:01:01.863Z,20.48
2022-11-19T22:03:31.226Z,17.58
2022-11-19T22:06:09.681Z,20.40
2022-11-19T22:08:39.628Z,19.55
2022-11-19T22:11:43.376Z,18.55
2022-11-19T22:14:10.608Z,19.52
2022-11-19T22:16:39.809Z,16.80
2022-11-19T22:19:06.910Z,14.05
2022-11-19T22:21:34.249Z,15.27
2022-11-19T22:24:01.168Z,18.63
2022-11-19T22:26:27.852Z,18.55
2022-11-19T22:28:55.064Z,17.60
2022-11-19T22:31:21.937Z,17.75
2022-11-19T22:33:51.468Z,12.45
2022-11-19T22:36:19.533Z,16.05
2022-11-19T22:38:46.140Z,14.23
2022-11-19T22:41:18.250Z,15.88
2022-11-19T22:43:44.927Z,17.65
2022-11-19T22:46:12.973Z,13.68
2022-11-19T22:48:39.824Z,21.13
2022-11-19T22:51:14.907Z,14.57
2022-11-19T22:53:41.656Z,14.80
2022-11-19T22:56:10.916Z,12.40
2022-11-19T22:58:38.433Z,15.85
2022-11-19T23:01:07.406Z,16.45
2022-11-19T23:03:34.141Z,15.05
2022-11-19T23:06:00.741Z,17.35
2022-11-19T23:08:27.386Z,19.40
2022-11-19T23:11:02.344Z,23.92
2022-11-19T23:13:33.159Z,17.17
2022-11-19T23:16:11.937Z,16.70
2022-11-19T23:18:41.877Z,18.33
2022-11-19T23:21:14.415Z,15.52
2022-11-19T23:23:41.148Z,14.15
2022-11-19T23:26:09.476Z,12.90
2022-11-19T23:28:37.894Z,13.48
2022-11-19T23:31:09.685Z,13.18
2022-11-19T23:33:36.612Z,14.27
2022-11-19T23:36:05.818Z,11.75
2022-11-19T23:38:34.241Z,10.95
2022-11-19T23:41:01.270Z,13.48
2022-11-19T23:43:29.291Z,13.07
2022-11-19T23:46:02.984Z,15.57
2022-11-19T23:48:30.652Z,9.98
2022-11-19T23:51:01.758Z,9.73
2022-11-19T23:53:28.357Z,13.97
2022-11-19T23:55:54.903Z,12.48
2022-11-19T23:58:21.590Z,12.70
